Airport View

Enter AWOS ICAO identifier for current METAR.

ex. KFNL

KTUS 251553Z 16006KT 10SM CLR 23/04 A2993 RMK AO2 SLP094 T02330044

25 Oct 2020 16:35

Phone: 520-295-5727

Other Area AWOS: KDMA - KRYN - KAVQ - KOLS

TAF KTUS 251120Z 2512/2612 14005KT P6SM BKN200 FM251900 21018G28KT P6SM SCT120 SCT200 FM261000 25008KT P6SM VCSH SCT050 BKN120